createdAt,value
2023-02-07T00:02:51.840Z,15.00
2023-02-07T00:06:44.398Z,14.60
2023-02-07T00:10:37.202Z,14.17
2023-02-07T00:14:30.470Z,14.43
2023-02-07T00:18:23.179Z,14.37
2023-02-07T00:22:15.840Z,14.87
2023-02-07T00:26:10.124Z,15.77
2023-02-07T00:30:03.152Z,16.17
2023-02-07T00:34:00.645Z,17.37
2023-02-07T00:37:53.578Z,18.83
2023-02-07T00:41:46.668Z,20.37
2023-02-07T00:45:39.637Z,23.97
2023-02-07T00:49:32.753Z,23.50
2023-02-07T00:53:26.532Z,24.33
2023-02-07T00:57:19.348Z,24.37
2023-02-07T01:01:12.727Z,24.73
2023-02-07T01:05:07.062Z,23.70
2023-02-07T01:09:01.947Z,23.33
2023-02-07T01:12:54.503Z,21.57
2023-02-07T01:16:47.302Z,21.60
2023-02-07T01:20:40.190Z,21.37
2023-02-07T01:24:32.832Z,22.50
2023-02-07T01:28:25.682Z,21.97
2023-02-07T01:32:18.576Z,21.37
2023-02-07T01:36:14.650Z,20.83
2023-02-07T01:40:08.096Z,20.83
2023-02-07T01:44:08.984Z,19.50
2023-02-07T01:48:13.944Z,20.07
2023-02-07T01:52:20.004Z,21.20
2023-02-07T01:56:29.454Z,26.27
2023-02-07T02:00:24.627Z,26.30
2023-02-07T02:04:17.338Z,20.60
2023-02-07T02:08:10.204Z,19.67
2023-02-07T02:12:45.506Z,20.53
2023-02-07T02:16:45.466Z,20.33
2023-02-07T02:21:25.891Z,20.43
2023-02-07T02:25:47.048Z,18.17
2023-02-07T02:30:14.803Z,18.80
2023-02-07T02:38:05.188Z,16.73
2023-02-07T02:42:17.411Z,17.00
2023-02-07T02:46:21.380Z,15.90
2023-02-07T02:50:18.678Z,15.03
2023-02-07T02:54:31.648Z,14.38
2023-02-07T02:58:24.416Z,14.90
2023-02-07T03:02:50.614Z,14.20
2023-02-07T03:07:01.575Z,13.90
2023-02-07T03:11:07.580Z,14.73
2023-02-07T03:15:29.805Z,14.80
2023-02-07T03:19:32.682Z,17.47
2023-02-07T03:23:26.354Z,18.40
2023-02-07T03:27:21.021Z,17.93
2023-02-07T03:31:17.926Z,17.03
2023-02-07T03:35:25.824Z,20.02
2023-02-07T03:39:18.870Z,16.90
2023-02-07T03:43:17.007Z,16.60
2023-02-07T03:47:09.847Z,16.60
2023-02-07T03:51:02.623Z,16.30
2023-02-07T03:54:55.858Z,15.57
2023-02-07T03:58:48.536Z,16.63
2023-02-07T04:02:41.438Z,15.87
2023-02-07T04:06:34.188Z,16.77
2023-02-07T04:10:27.115Z,17.27
2023-02-07T04:14:22.558Z,15.93
2023-02-07T04:18:15.378Z,16.80
2023-02-07T04:22:11.251Z,16.77
2023-02-07T04:26:04.380Z,16.87
2023-02-07T04:29:57.088Z,16.77
2023-02-07T04:33:49.822Z,18.67
2023-02-07T04:37:42.785Z,19.63
2023-02-07T04:41:36.473Z,18.13
2023-02-07T04:45:29.088Z,18.20
2023-02-07T04:49:21.846Z,18.97
2023-02-07T04:53:15.527Z,18.40
2023-02-07T04:57:08.119Z,16.63
2023-02-07T05:01:01.067Z,16.13
2023-02-07T05:04:53.691Z,15.97
2023-02-07T05:08:46.544Z,14.27
2023-02-07T05:12:39.311Z,14.77
2023-02-07T05:16:31.957Z,15.47
2023-02-07T05:20:26.022Z,16.30
2023-02-07T05:24:18.865Z,16.87
2023-02-07T05:28:11.847Z,16.83
2023-02-07T05:32:23.251Z,15.97
2023-02-07T05:36:15.841Z,16.80
2023-02-07T05:40:09.588Z,20.93
2023-02-07T05:44:02.549Z,20.17
2023-02-07T05:47:55.515Z,19.40
2023-02-07T05:51:48.163Z,19.63
2023-02-07T05:55:41.357Z,19.60
2023-02-07T05:59:34.240Z,20.63
2023-02-07T06:03:26.892Z,18.67
2023-02-07T06:07:19.558Z,18.77
2023-02-07T06:11:12.627Z,19.80
2023-02-07T06:15:05.434Z,21.33
2023-02-07T06:18:58.258Z,22.07
2023-02-07T06:22:52.457Z,21.97
2023-02-07T06:26:47.049Z,20.90
2023-02-07T06:30:39.814Z,23.67
2023-02-07T06:34:32.525Z,24.53
2023-02-07T06:38:25.383Z,24.93
2023-02-07T06:42:18.145Z,24.47
2023-02-07T06:46:10.947Z,25.57
2023-02-07T06:50:04.875Z,24.83
2023-02-07T06:53:57.716Z,25.03
2023-02-07T06:57:51.812Z,23.07
2023-02-07T07:01:44.451Z,23.40
2023-02-07T07:05:37.838Z,25.37
2023-02-07T07:09:30.972Z,26.23
2023-02-07T07:13:23.643Z,28.60
2023-02-07T07:17:16.301Z,27.47
2023-02-07T07:21:11.675Z,27.90
2023-02-07T07:25:05.005Z,29.53
2023-02-07T07:29:00.350Z,28.97
2023-02-07T07:32:53.139Z,27.80
2023-02-07T07:36:46.012Z,27.37
2023-02-07T07:40:39.077Z,29.10
2023-02-07T07:44:32.083Z,28.43
2023-02-07T07:48:25.507Z,28.07
2023-02-07T07:52:18.226Z,27.80
2023-02-07T07:56:11.237Z,30.10
2023-02-07T08:00:06.527Z,30.57
2023-02-07T08:03:59.425Z,31.43
2023-02-07T08:07:52.268Z,29.83
2023-02-07T08:11:46.082Z,29.33
2023-02-07T08:15:39.616Z,30.00
2023-02-07T08:19:33.241Z,27.23
2023-02-07T08:23:26.077Z,27.87
2023-02-07T08:27:18.904Z,26.20
2023-02-07T08:31:12.535Z,26.40
2023-02-07T08:35:06.014Z,27.53
2023-02-07T08:38:59.260Z,27.63
2023-02-07T08:42:52.079Z,28.20
2023-02-07T08:46:44.802Z,26.43
2023-02-07T08:50:38.028Z,26.83
2023-02-07T08:54:31.236Z,25.87
2023-02-07T08:58:23.969Z,26.27
2023-02-07T09:02:16.686Z,27.63
2023-02-07T09:06:10.833Z,27.63
2023-02-07T09:10:06.956Z,26.53
2023-02-07T09:13:59.713Z,24.87
2023-02-07T09:17:52.556Z,24.80
2023-02-07T09:21:45.537Z,24.93
2023-02-07T09:25:40.784Z,22.90
2023-02-07T09:29:34.954Z,23.63
2023-02-07T09:33:30.019Z,23.57
2023-02-07T09:37:22.794Z,23.33
2023-02-07T09:41:41.036Z,22.63
2023-02-07T09:45:39.209Z,23.80
2023-02-07T09:49:53.767Z,23.23
2023-02-07T09:53:49.439Z,23.33
2023-02-07T09:57:49.457Z,22.27
2023-02-07T10:01:47.610Z,21.83
2023-02-07T10:06:18.889Z,22.80
2023-02-07T10:10:25.640Z,22.30
2023-02-07T10:14:56.589Z,20.27
2023-02-07T10:19:01.313Z,20.70
2023-02-07T10:23:32.817Z,19.37
2023-02-07T10:27:38.761Z,19.10
2023-02-07T10:31:33.611Z,20.00
2023-02-07T10:35:36.706Z,20.73
2023-02-07T10:39:36.839Z,20.40
2023-02-07T10:43:33.200Z,20.43
2023-02-07T10:47:26.617Z,22.03
2023-02-07T10:51:27.845Z,21.10
2023-02-07T10:55:36.782Z,20.97
2023-02-07T10:59:51.594Z,20.70
2023-02-07T11:03:44.554Z,22.63
2023-02-07T11:07:47.376Z,20.27
2023-02-07T11:11:41.885Z,21.70
2023-02-07T11:15:49.688Z,22.13
2023-02-07T11:19:45.583Z,19.65
2023-02-07T11:23:44.755Z,20.97
2023-02-07T11:27:40.682Z,20.57
2023-02-07T11:31:37.567Z,20.80
2023-02-07T11:35:30.536Z,20.77
2023-02-07T11:39:23.960Z,21.70
2023-02-07T11:43:19.255Z,21.67
2023-02-07T11:47:28.350Z,20.75
2023-02-07T11:51:23.258Z,20.42
2023-02-07T11:55:22.502Z,20.27
2023-02-07T11:59:18.695Z,19.93
2023-02-07T12:03:26.758Z,20.75
2023-02-07T12:07:25.998Z,18.93
2023-02-07T12:11:24.201Z,21.10
2023-02-07T12:15:22.747Z,17.67
2023-02-07T12:19:24.616Z,21.67
2023-02-07T12:23:40.698Z,18.58
2023-02-07T12:27:40.149Z,16.35
2023-02-07T12:31:59.143Z,16.27
2023-02-07T12:36:04.081Z,17.27
2023-02-07T12:40:27.183Z,16.50
2023-02-07T12:44:35.993Z,15.73
2023-02-07T12:48:47.224Z,16.48
2023-02-07T12:52:45.916Z,17.50
2023-02-07T12:57:23.861Z,16.88
2023-02-07T13:01:38.968Z,41.72
2023-02-07T13:05:31.863Z,22.20
2023-02-07T13:09:37.646Z,17.13
2023-02-07T13:13:40.865Z,18.15
2023-02-07T13:17:42.350Z,15.45
2023-02-07T13:21:48.850Z,14.85
2023-02-07T13:25:44.236Z,12.50
2023-02-07T13:29:39.508Z,15.77
2023-02-07T13:33:40.873Z,16.38
2023-02-07T13:37:49.768Z,14.40
2023-02-07T13:42:07.060Z,13.70
2023-02-07T13:46:02.732Z,13.70
2023-02-07T13:50:14.132Z,12.82
2023-02-07T13:54:37.562Z,13.02
2023-02-07T13:58:52.233Z,13.25
2023-02-07T14:02:52.516Z,14.50
2023-02-07T14:06:57.626Z,13.07
2023-02-07T14:10:56.254Z,15.63
2023-02-07T14:15:01.899Z,18.10
2023-02-07T14:18:55.758Z,45.28
2023-02-07T14:22:51.416Z,21.40
2023-02-07T14:26:59.289Z,49.80
2023-02-07T14:35:19.652Z,16.88
2023-02-07T14:39:18.780Z,28.58
2023-02-07T14:43:15.088Z,23.42
2023-02-07T14:47:15.963Z,27.20
2023-02-07T14:51:16.854Z,19.50
2023-02-07T14:55:24.602Z,25.52
2023-02-07T14:59:27.632Z,15.68
2023-02-07T15:03:22.136Z,21.50
2023-02-07T15:07:19.270Z,22.23
2023-02-07T15:11:13.967Z,20.63
2023-02-07T15:15:08.194Z,15.98
2023-02-07T15:19:19.847Z,22.13
2023-02-07T15:23:15.376Z,31.42
2023-02-07T15:27:20.726Z,25.58
2023-02-07T15:31:19.020Z,32.30
2023-02-07T15:35:27.022Z,48.80
2023-02-07T15:43:23.853Z,30.40
2023-02-07T15:47:36.831Z,34.47
2023-02-07T15:51:33.908Z,32.50
2023-02-07T15:55:45.686Z,30.05
2023-02-07T15:59:41.519Z,29.50
2023-02-07T16:03:42.168Z,24.73
2023-02-07T16:07:36.904Z,26.20
2023-02-07T16:11:32.882Z,25.17
2023-02-07T16:15:32.410Z,25.25
2023-02-07T16:19:33.399Z,64.90
2023-02-07T16:23:27.529Z,94.57
2023-02-07T16:27:24.719Z,55.33
2023-02-07T16:31:19.853Z,35.25
2023-02-07T16:35:27.161Z,25.88
2023-02-07T16:39:20.332Z,23.43
2023-02-07T16:43:34.138Z,23.10
2023-02-07T16:47:27.530Z,23.50
2023-02-07T16:51:21.277Z,24.30
2023-02-07T16:55:13.975Z,24.93
2023-02-07T16:59:09.782Z,26.13
2023-02-07T17:03:02.801Z,24.53
2023-02-07T17:06:55.466Z,26.73
2023-02-07T17:10:52.500Z,28.60
2023-02-07T17:14:45.410Z,29.35
2023-02-07T17:18:38.308Z,32.87
2023-02-07T17:22:31.445Z,31.33
2023-02-07T17:26:31.818Z,30.53
2023-02-07T17:30:40.181Z,27.77
2023-02-07T17:34:33.541Z,25.00
2023-02-07T17:38:29.375Z,25.77
2023-02-07T17:42:24.116Z,29.77
2023-02-07T17:46:27.306Z,29.87
2023-02-07T17:50:26.631Z,30.60
2023-02-07T17:54:21.706Z,33.83
2023-02-07T17:58:19.656Z,33.90
2023-02-07T18:02:15.545Z,33.00
2023-02-07T18:06:14.821Z,32.83
2023-02-07T18:10:11.475Z,32.43
2023-02-07T18:14:09.533Z,34.70
2023-02-07T18:18:04.251Z,29.33
2023-02-07T18:21:58.746Z,30.17
2023-02-07T18:25:53.270Z,28.37
2023-02-07T18:29:47.184Z,26.77
2023-02-07T18:33:41.370Z,28.67
2023-02-07T18:37:35.639Z,28.07
2023-02-07T18:41:30.121Z,29.73
2023-02-07T18:45:26.001Z,30.40
2023-02-07T18:49:20.271Z,33.13
2023-02-07T18:53:14.560Z,35.00
2023-02-07T18:57:10.653Z,36.73
2023-02-07T19:01:10.554Z,30.53
2023-02-07T19:05:05.174Z,28.50
2023-02-07T19:08:59.999Z,31.20
2023-02-07T19:12:55.211Z,32.13
2023-02-07T19:16:52.179Z,30.33
2023-02-07T19:20:46.611Z,29.03
2023-02-07T19:24:42.864Z,30.00
2023-02-07T19:28:39.673Z,29.77
2023-02-07T19:32:34.050Z,28.02
2023-02-07T19:36:29.045Z,35.50
2023-02-07T19:40:24.245Z,29.53
2023-02-07T19:44:18.995Z,35.10
2023-02-07T19:48:14.965Z,36.77
2023-02-07T19:52:10.162Z,45.23
2023-02-07T19:56:12.912Z,38.83
2023-02-07T20:00:12.141Z,41.43
2023-02-07T20:04:10.644Z,40.07
2023-02-07T20:08:05.754Z,36.17
2023-02-07T20:12:02.766Z,36.43
2023-02-07T20:15:57.198Z,34.57
2023-02-07T20:19:52.855Z,34.93
2023-02-07T20:23:51.071Z,42.37
2023-02-07T20:27:45.733Z,43.97
2023-02-07T20:31:41.657Z,42.67
2023-02-07T20:35:39.932Z,37.93
2023-02-07T20:39:35.335Z,29.60
2023-02-07T20:43:29.470Z,29.73
2023-02-07T20:47:27.355Z,34.07
2023-02-07T20:51:22.891Z,35.00
2023-02-07T20:55:18.214Z,36.83
2023-02-07T20:59:20.722Z,37.50
2023-02-07T21:03:15.506Z,38.00
2023-02-07T21:07:09.661Z,39.33
2023-02-07T21:11:05.870Z,37.90
2023-02-07T21:14:59.622Z,35.37
2023-02-07T21:18:52.925Z,35.30
2023-02-07T21:22:46.453Z,34.60
2023-02-07T21:26:40.261Z,39.33
2023-02-07T21:30:34.595Z,38.97
2023-02-07T21:34:27.581Z,38.90
2023-02-07T21:38:20.910Z,37.40
2023-02-07T21:42:14.156Z,36.17
2023-02-07T21:46:11.679Z,36.40
2023-02-07T21:50:04.649Z,36.33
2023-02-07T21:53:58.281Z,38.80
2023-02-07T21:57:51.874Z,34.10
2023-02-07T22:01:46.506Z,31.23
2023-02-07T22:05:39.300Z,29.17
2023-02-07T22:09:31.888Z,30.03
2023-02-07T22:17:23.685Z,25.70
2023-02-07T22:21:20.748Z,26.13
2023-02-07T22:25:13.261Z,26.05
2023-02-07T22:29:07.428Z,26.67
2023-02-07T22:33:00.202Z,26.77
2023-02-07T22:36:52.962Z,25.77
2023-02-07T22:40:45.415Z,25.63
2023-02-07T22:44:38.168Z,23.10
2023-02-07T22:48:31.542Z,22.93
2023-02-07T22:52:24.203Z,23.60
2023-02-07T22:56:17.525Z,22.27
2023-02-07T23:00:15.096Z,22.10
2023-02-07T23:04:13.295Z,22.13
2023-02-07T23:08:07.023Z,23.57
2023-02-07T23:12:00.536Z,23.90
2023-02-07T23:15:54.227Z,23.50
2023-02-07T23:19:47.068Z,22.47
2023-02-07T23:23:40.632Z,23.10
2023-02-07T23:27:33.770Z,22.73
2023-02-07T23:31:26.878Z,22.33
2023-02-07T23:35:19.746Z,23.47
2023-02-07T23:39:12.761Z,26.03
2023-02-07T23:43:05.316Z,24.37
2023-02-07T23:46:58.076Z,25.47
2023-02-07T23:50:55.698Z,24.50
2023-02-07T23:54:48.535Z,23.73
2023-02-07T23:58:41.302Z,23.37
